Hibbing, MN

12:09 AM CDT on July 28, 2016 (GMT -0500)
Chisholm-hibbing | | Change Station

Elev 1352 ft 47.39 °N, 92.84 °W | Updated 16 minutes ago

Fog
Fog
54 °F
Feels Like 54 °F
N
0
Wind Variable Wind from North

Today
High -- | Low -- °F
--% Chance of Precip.
Yesterday
High -- | Low -- °F
Precip. -- in
Pressure 30.09 in
Visibility 0.2 miles
Clouds
Dew Point 54 °F
Humidity 100%
Rainfall 0.16 in
Snow Depth Not available.
5:45 AM 8:49 PM
Waning Crescent, 36% visible
METAR KHIB 280453Z AUTO 00000KT 1/4SM FG VV001 12/12 A3007 RMK AO2 SLP187 T01220122
Pressure 30.09 in
Visibility 0.2 miles
Clouds
Dew Point 54 °F
Humidity 100%
Rainfall 0.16 in
Snow Depth Not available.
5:45 AM 8:49 PM
Waning Crescent, 36% visible
METAR KHIB 280453Z AUTO 00000KT 1/4SM FG VV001 12/12 A3007 RMK AO2 SLP187 T01220122

10-Day Weather Forecast

Almanac

Astronomy

Jul. 28, 2016 Rise Set
Actual Time
Civil Twilight
Nautical Twilight
Astronomical Twilight
Moon
Length of Visible Light
Length of Day
Tomorrow will be .
, % of the Moon is Illuminated

Today's Extremes

State Highs State Lows

Community

WunderPhotos

Upload Photos

1,928,060 photos uploaded!

WunderBlog® & News

Nearby

Air Quality

  Air Quality AQ Index Pollutant
Not available.

Snow Depth

Station Depth Elevation

Earthquake Activity

City Distance Mag. Time & Date
Minimum magnitude displayed is 2.5.

Coastal Water Temperatures

Place Temperature

Stations

Nearby Weather Stations

Station Location Temp. Windchill Dew Point Humidity Wind Precip. Elev Updated Type
                   

Watches & Warnings

There are currently no watches in effect.